首页
METAR-TAF:

METAR-TAF

机场 :

石油平台

A12-cpp, 荷兰

纬度: 55-23-57N, 经度: 3-48-37E, 海拔: 33米

当前天气观测

该预报发布于39分钟前的15:25 UTC
风速33节,风向北转西北
温度 7°C
湿度 66%
气压 1004 hPa
能见度10公里或以上

METAR: EHAK 021525Z AUTO 33033KT 9999 FEW022/// SCT036/// BKN041/// 07/01 Q1004

时间: 18:04 (16:04 UTC)


TAF: 丢失

超过4000个机场的气象观测和天气预报(METAR&TAF报告)。

可查询的气象台以黄色和红色小点在地图上表示。

将鼠标移到小点上方,可查看气象台名称。

然后点击查看天气观测和预报。

如需切换地图:点击带黑十字的绿色按钮放大地图;点击带横线的绿色按钮缩小地图;或者点击绿色箭头查看邻近地区的地图。


METAR-TAF: